Time;durP1;ratioP1;P1;durP2;ratioP2;P2;SDS_P1;SDS_P2;PMS_P1;PMS_P2;Temp;Humidity;BMP_temperature;BMP_pressure;BME280_temperature;BME280_humidity;BME280_pressure;Samples;Min_cycle;Max_cycle;Signal;HPM_P1;HPM_P2
2021/07/02 00:02:16;;;;;;;97.57;35.73;;;;;;;15.07;100.00;100758.73;124873;1093;64320;-83
2021/07/02 00:04:43;;;;;;;120.95;42.00;;;;;;;15.07;100.00;100756.06;125085;1093;64211;-82
2021/07/02 00:07:10;;;;;;;132.27;43.43;;;;;;;15.08;100.00;100749.67;125030;1093;64780;-82
2021/07/02 00:09:37;;;;;;;108.17;35.67;;;;;;;15.08;100.00;100754.20;124886;1093;64371;-82
2021/07/02 00:12:04;;;;;;;122.80;36.33;;;;;;;15.08;100.00;100748.86;125120;1092;64245;-84
2021/07/02 00:14:31;;;;;;;118.57;40.20;;;;;;;15.08;100.00;100752.34;124867;1092;64304;-84
2021/07/02 00:16:59;;;;;;;100.90;34.97;;;;;;;15.07;100.00;100755.25;124965;1093;64287;-83
2021/07/02 00:19:26;;;;;;;115.00;39.73;;;;;;;15.06;100.00;100749.05;124831;1093;64285;-82
2021/07/02 00:21:53;;;;;;;106.33;34.33;;;;;;;15.04;100.00;100748.44;124960;1093;64281;-81
2021/07/02 00:24:20;;;;;;;109.70;40.20;;;;;;;15.04;100.00;100753.78;124994;1093;64233;-82
2021/07/02 00:26:48;;;;;;;100.45;33.35;;;;;;;15.05;100.00;100760.78;124928;1092;64261;-82
2021/07/02 00:29:15;;;;;;;111.53;28.97;;;;;;;15.03;100.00;100752.15;125005;1092;64323;-82
2021/07/02 00:31:42;;;;;;;107.70;29.45;;;;;;;15.03;100.00;100754.01;124997;1093;64288;-82
2021/07/02 00:34:09;;;;;;;110.07;36.33;;;;;;;15.03;100.00;100756.67;125005;1093;64356;-82
2021/07/02 00:36:36;;;;;;;92.17;30.90;;;;;;;15.02;100.00;100757.69;124793;1093;64214;-82
2021/07/02 00:39:03;;;;;;;94.20;34.95;;;;;;;15.00;100.00;100749.90;124891;1093;64382;-82
2021/07/02 00:41:30;;;;;;;105.80;35.80;;;;;;;15.00;100.00;100749.05;124938;1091;64351;-84
2021/07/02 00:43:57;;;;;;;109.80;34.20;;;;;;;14.99;100.00;100742.08;124878;1092;65189;-83
2021/07/02 00:46:25;;;;;;;113.03;40.77;;;;;;;14.98;100.00;100746.61;124877;1093;64371;-83
2021/07/02 00:48:53;;;;;;;80.65;27.50;;;;;;;14.99;100.00;100742.89;124915;1093;64288;-82
2021/07/02 00:51:20;;;;;;;99.03;36.77;;;;;;;14.97;100.00;100750.28;125065;1092;64285;-83
2021/07/02 00:53:48;;;;;;;115.27;34.43;;;;;;;14.97;100.00;100752.95;124899;1092;64316;-83
2021/07/02 00:56:18;;;;;;;98.80;33.80;;;;;;;14.96;100.00;100751.33;125027;1093;64282;-81
2021/07/02 00:58:46;;;;;;;122.90;40.13;;;;;;;14.95;100.00;100749.66;124967;1092;64326;-82
2021/07/02 01:01:16;;;;;;;85.00;27.15;;;;;;;14.94;100.00;100745.36;124880;1093;64275;-82
2021/07/02 01:03:46;;;;;;;125.80;37.37;;;;;;;14.94;100.00;100750.70;124863;1093;64272;-82
2021/07/02 01:06:14;;;;;;;113.33;34.93;;;;;;;14.93;100.00;100737.55;125060;1093;64259;-83
2021/07/02 01:08:42;;;;;;;96.93;36.00;;;;;;;14.92;100.00;100739.39;124931;1092;64265;-83
2021/07/02 01:11:11;;;;;;;104.37;34.97;;;;;;;14.93;100.00;100737.55;124832;1092;64731;-82
2021/07/02 01:13:38;;;;;;;101.30;38.47;;;;;;;14.93;100.00;100737.55;124921;1092;64236;-82
2021/07/02 01:16:06;;;;;;;111.53;33.97;;;;;;;14.90;100.00;100738.77;125071;1093;64381;-82
2021/07/02 01:18:33;;;;;;;111.17;35.93;;;;;;;14.89;100.00;100739.78;124849;1093;64235;-83
2021/07/02 01:21:00;;;;;;;111.37;35.27;;;;;;;14.89;100.00;100737.11;124955;1093;64564;-83
2021/07/02 01:23:27;;;;;;;94.87;30.20;;;;;;;14.86;100.00;100733.00;124972;1093;64755;-83
2021/07/02 01:25:56;;;;;;;86.33;28.07;;;;;;;14.85;100.00;100730.53;124915;1093;65000;-82
2021/07/02 01:28:23;;;;;;;111.20;32.77;;;;;;;14.82;100.00;100736.29;124865;1092;64348;-82
2021/07/02 01:30:50;;;;;;;93.90;34.77;;;;;;;14.81;100.00;100746.16;125015;1093;64307;-82
2021/07/02 01:33:17;;;;;;;115.80;40.33;;;;;;;14.80;100.00;100735.66;124944;1093;64272;-83
2021/07/02 01:35:44;;;;;;;106.70;38.25;;;;;;;14.80;100.00;100739.15;124840;1093;64454;-82
2021/07/02 01:38:11;;;;;;;93.20;30.10;;;;;;;14.77;100.00;100739.56;124894;1092;64379;-85
2021/07/02 01:40:39;;;;;;;87.17;31.90;;;;;;;14.77;100.00;100746.73;124853;1092;64301;-83
2021/07/02 01:43:06;;;;;;;104.20;34.23;;;;;;;14.72;100.00;100741.19;124928;1093;64344;-82
2021/07/02 01:45:33;;;;;;;98.73;33.40;;;;;;;14.70;100.00;100740.56;125015;1092;64275;-83
2021/07/02 01:48:00;;;;;;;95.60;32.77;;;;;;;14.67;100.00;100745.28;125014;1093;64428;-82
2021/07/02 01:50:27;;;;;;;92.53;30.70;;;;;;;14.65;100.00;100744.66;125057;1093;64293;-82
2021/07/02 01:52:55;;;;;;;90.67;28.57;;;;;;;14.65;100.00;100755.33;124882;1092;64201;-83
2021/07/02 01:55:23;;;;;;;81.45;28.80;;;;;;;14.67;100.00;100747.13;124913;1092;64195;-85
2021/07/02 01:57:50;;;;;;;93.73;27.13;;;;;;;14.65;100.00;100746.51;124884;1092;64281;-82
2021/07/02 02:00:18;;;;;;;100.30;34.97;;;;;;;14.66;100.00;100748.14;124868;1093;64397;-82
2021/07/02 02:02:45;;;;;;;121.25;38.30;;;;;;;14.66;100.00;100743.64;124834;1092;64419;-82
2021/07/02 02:05:12;;;;;;;90.47;32.40;;;;;;;14.65;100.00;100749.99;124844;1093;64307;-82
2021/07/02 02:07:39;;;;;;;108.20;37.83;;;;;;;14.66;100.00;100754.33;125034;1093;64307;-82
2021/07/02 02:10:08;;;;;;;114.23;35.77;;;;;;;14.64;100.00;100745.69;125059;1093;64288;-82
2021/07/02 02:12:35;;;;;;;121.73;40.07;;;;;;;14.64;100.00;100751.03;124902;1092;64403;-81
2021/07/02 02:15:06;;;;;;;107.07;36.10;;;;;;;14.63;100.00;100754.70;124888;1092;64304;-84
2021/07/02 02:17:35;;;;;;;109.60;35.50;;;;;;;14.63;100.00;100757.38;125034;1093;64259;-82
2021/07/02 02:20:04;;;;;;;83.30;26.17;;;;;;;14.62;100.00;100750.41;125017;1093;64234;-82
2021/07/02 02:22:32;;;;;;;123.87;39.20;;;;;;;14.61;100.00;100743.41;125342;1093;64327;-82
2021/07/02 02:25:00;;;;;;;93.27;34.90;;;;;;;14.59;100.00;100748.13;126934;1092;64368;-83
2021/07/02 02:27:27;;;;;;;78.50;27.33;;;;;;;14.59;100.00;100748.13;126815;1093;64173;-86
2021/07/02 02:29:54;;;;;;;94.33;34.33;;;;;;;14.57;100.00;100752.83;125077;1093;64254;-83
2021/07/02 02:32:21;;;;;;;96.40;36.77;;;;;;;14.54;100.00;100758.55;125157;1093;64307;-84
2021/07/02 02:34:48;;;;;;;96.87;33.30;;;;;;;14.54;100.00;100755.89;125239;1093;64202;-84
2021/07/02 02:37:15;;;;;;;102.30;40.53;;;;;;;14.54;100.00;100752.41;125210;1093;64467;-84
2021/07/02 02:39:42;;;;;;;91.20;29.57;;;;;;;14.53;100.00;100758.75;125096;1093;64259;-83
2021/07/02 02:42:10;;;;;;;90.87;32.43;;;;;;;14.50;100.00;100754.64;125125;1093;65371;-84
2021/07/02 02:44:37;;;;;;;102.20;32.20;;;;;;;14.47;100.00;100763.02;124942;1092;64343;-85
2021/07/02 02:47:04;;;;;;;104.40;31.73;;;;;;;14.45;100.00;100767.73;124995;1093;64233;-84
2021/07/02 02:49:31;;;;;;;89.27;32.60;;;;;;;14.44;100.00;100768.77;125132;1093;64320;-84
2021/07/02 02:51:58;;;;;;;82.00;29.47;;;;;;;14.45;100.00;100767.73;125234;1093;64261;-84
2021/07/02 02:54:25;;;;;;;88.10;35.27;;;;;;;14.43;100.00;100780.48;127008;1092;64215;-85
2021/07/02 02:57:05;;;;;;;117.93;41.67;;;;;;;14.44;100.00;100782.12;126844;1093;64291;-82
2021/07/02 02:59:34;;;;;;;82.73;30.37;;;;;;;14.43;100.00;100780.48;124854;1093;64208;-82
2021/07/02 03:02:06;;;;;;;95.00;35.33;;;;;;;14.44;100.00;100782.12;125034;1092;64243;-84
2021/07/02 03:04:35;;;;;;;90.77;31.27;;;;;;;14.42;100.00;100786.83;125193;1092;64769;-84
2021/07/02 03:07:04;;;;;;;85.07;30.77;;;;;;;14.42;100.00;100786.83;125107;1093;64964;-83
2021/07/02 03:09:32;;;;;;;97.57;34.50;;;;;;;14.40;100.00;100784.35;125077;1093;64298;-84
2021/07/02 03:12:00;;;;;;;73.63;33.23;;;;;;;14.41;100.00;100793.20;125193;1091;64288;-84
2021/07/02 03:14:27;;;;;;;97.60;35.80;;;;;;;14.41;100.00;100793.20;124915;1092;64288;-82
2021/07/02 03:16:54;;;;;;;100.77;34.97;;;;;;;14.41;100.00;100796.69;125061;1093;65136;-83
2021/07/02 03:19:21;;;;;;;88.57;30.67;;;;;;;14.42;100.00;100805.52;125014;1093;64345;-85
2021/07/02 03:21:49;;;;;;;71.10;25.87;;;;;;;14.40;100.00;100807.55;124862;1092;64329;-83
2021/07/02 03:24:16;;;;;;;93.17;31.80;;;;;;;14.39;100.00;100805.92;125188;1093;64261;-83
2021/07/02 03:26:43;;;;;;;81.33;34.03;;;;;;;14.36;100.00;100801.78;124936;1093;64407;-83
2021/07/02 03:29:10;;;;;;;86.80;30.20;;;;;;;14.37;100.00;100799.95;124830;1092;64237;-82
2021/07/02 03:31:37;;;;;;;91.67;27.43;;;;;;;14.36;100.00;100801.78;124903;1093;64384;-82
2021/07/02 03:34:05;;;;;;;89.20;34.60;;;;;;;14.38;100.00;100806.92;125348;1092;64304;-83
2021/07/02 03:36:33;;;;;;;103.73;29.27;;;;;;;14.38;100.00;100815.75;124877;1093;64312;-83
2021/07/02 03:39:00;;;;;;;98.70;25.80;;;;;;;14.37;100.00;100802.63;125139;1093;64352;-82
2021/07/02 03:41:27;;;;;;;87.50;33.23;;;;;;;14.38;100.00;100809.59;124978;1093;64253;-81
2021/07/02 03:43:59;;;;;;;74.03;26.97;;;;;;;14.37;100.00;100807.96;124997;1093;64265;-81
2021/07/02 03:46:26;;;;;;;71.57;27.43;;;;;;;14.38;100.00;100814.93;124900;1092;64363;-82
2021/07/02 03:48:53;;;;;;;93.65;34.00;;;;;;;14.40;100.00;100813.71;124846;1093;64281;-81
2021/07/02 03:51:20;;;;;;;79.30;31.27;;;;;;;14.44;100.00;100811.48;124883;1093;64384;-80
2021/07/02 03:53:47;;;;;;;85.37;33.73;;;;;;;14.46;100.00;100820.11;124878;1092;64378;-81
2021/07/02 03:56:14;;;;;;;90.90;31.50;;;;;;;14.49;100.00;100809.03;125034;1093;64288;-81
2021/07/02 03:58:41;;;;;;;66.87;26.10;;;;;;;14.49;100.00;100811.70;124865;1093;64259;-81
2021/07/02 04:01:09;;;;;;;71.60;29.23;;;;;;;14.50;100.00;100813.36;124807;1093;64240;-81
2021/07/02 04:03:36;;;;;;;77.67;31.17;;;;;;;14.50;100.00;100813.36;124841;1093;64425;-81
2021/07/02 04:06:03;;;;;;;71.20;27.43;;;;;;;14.52;100.00;100811.31;124830;1092;64291;-82
2021/07/02 04:08:30;;;;;;;86.07;29.37;;;;;;;14.51;100.00;100820.33;124930;1093;64288;-81
2021/07/02 04:10:57;;;;;;;77.90;29.70;;;;;;;14.54;100.00;100825.30;124934;1093;64294;-80
2021/07/02 04:13:25;;;;;;;90.75;32.90;;;;;;;14.57;100.00;100822.24;124920;1092;64284;-81
2021/07/02 04:15:53;;;;;;;82.33;32.90;;;;;;;14.57;100.00;100830.25;125019;1093;64301;-81
2021/07/02 04:18:21;;;;;;;70.50;25.60;;;;;;;14.55;100.00;100826.95;124867;1092;64332;-80
2021/07/02 04:20:48;;;;;;;75.20;28.63;;;;;;;14.55;100.00;100842.13;124971;1093;64947;-80
2021/07/02 04:23:15;;;;;;;78.85;33.90;;;;;;;14.55;100.00;100845.64;124924;1093;64385;-81
2021/07/02 04:25:43;;;;;;;75.60;32.33;;;;;;;14.58;100.00;100847.94;125045;1092;64302;-80
2021/07/02 04:28:10;;;;;;;78.90;31.35;;;;;;;14.58;100.00;100847.12;124818;1093;64514;-82
2021/07/02 04:30:37;;;;;;;91.37;36.63;;;;;;;14.58;99.76;100842.59;125024;1093;64285;-81
2021/07/02 04:33:04;;;;;;;86.77;34.07;;;;;;;14.58;99.70;100857.80;124808;1093;64304;-79
2021/07/02 04:35:31;;;;;;;76.00;31.23;;;;;;;14.57;99.35;100851.61;124872;1093;64256;-81
2021/07/02 04:37:58;;;;;;;103.20;35.95;;;;;;;14.56;99.56;100852.64;125036;1093;64304;-81
2021/07/02 04:40:25;;;;;;;77.80;29.77;;;;;;;14.56;99.61;100847.31;125144;1093;64199;-82
2021/07/02 04:42:53;;;;;;;80.53;33.10;;;;;;;14.57;99.65;100846.27;124921;1093;64378;-80
2021/07/02 04:45:20;;;;;;;87.73;34.53;;;;;;;14.58;99.53;100847.94;124864;1092;64333;-81
2021/07/02 04:47:47;;;;;;;77.63;29.10;;;;;;;14.57;99.16;100856.13;124953;1092;64326;-80
2021/07/02 04:50:14;;;;;;;82.70;31.15;;;;;;;14.54;99.06;100862.66;124973;1093;64307;-80
2021/07/02 04:52:41;;;;;;;90.07;31.87;;;;;;;14.53;98.89;100860.19;124895;1093;64426;-80
2021/07/02 04:55:09;;;;;;;69.93;24.60;;;;;;;14.48;99.13;100858.92;125003;1092;64310;-80
2021/07/02 04:57:36;;;;;;;78.33;29.70;;;;;;;14.48;98.85;100863.45;124823;1093;64310;-82
2021/07/02 05:00:06;;;;;;;81.73;30.43;;;;;;;14.48;98.88;100863.45;124907;1093;64296;-81
2021/07/02 05:02:33;;;;;;;61.70;24.67;;;;;;;14.49;99.22;100865.08;125027;1093;64272;-80
2021/07/02 05:05:00;;;;;;;60.57;23.50;;;;;;;14.48;98.60;100874.13;124998;1092;64435;-79
2021/07/02 05:07:29;;;;;;;67.37;22.57;;;;;;;14.48;98.51;100874.13;124852;1093;64304;-80
2021/07/02 05:09:56;;;;;;;66.53;23.30;;;;;;;14.48;98.60;100869.61;125256;1093;64290;-72
2021/07/02 05:12:23;;;;;;;69.23;26.93;;;;;;;14.47;98.38;100880.47;124835;1093;64230;-72
2021/07/02 05:14:50;;;;;;;79.97;28.80;;;;;;;14.47;98.58;100886.66;124794;1093;64315;-74
2021/07/02 05:17:17;;;;;;;75.30;29.10;;;;;;;14.49;98.12;100875.76;124703;1093;64400;-76
2021/07/02 05:19:44;;;;;;;73.53;25.63;;;;;;;14.50;97.83;100890.77;124663;1093;64242;-74
2021/07/02 05:22:21;;;;;;;70.90;23.83;;;;;;;14.52;97.73;100880.72;124803;1093;64285;-72
2021/07/02 05:24:49;;;;;;;75.73;25.53;;;;;;;14.52;97.49;100880.72;124687;1093;64301;-71
2021/07/02 05:27:17;;;;;;;75.63;28.17;;;;;;;14.57;97.41;100883.65;124882;1093;64282;-74
2021/07/02 05:29:44;;;;;;;60.03;24.90;;;;;;;14.59;96.99;100881.61;124861;1093;64403;-73
2021/07/02 05:32:12;;;;;;;82.40;28.57;;;;;;;14.60;96.60;100882.42;124693;1093;64397;-73
2021/07/02 05:34:56;;;;;;;68.68;27.68;;;;;;;14.62;96.57;100886.57;124855;1093;64274;-73
2021/07/02 05:37:24;;;;;;;62.97;27.13;;;;;;;14.63;96.80;100888.20;124879;1093;64284;-73
2021/07/02 05:39:51;;;;;;;64.60;26.00;;;;;;;14.64;96.58;100897.03;124864;1093;64263;-73
2021/07/02 05:42:22;;;;;;;66.93;25.57;;;;;;;14.66;96.74;100905.67;124874;1093;65481;-73
2021/07/02 05:44:49;;;;;;;76.77;25.47;;;;;;;14.64;95.79;100905.89;124685;1093;64368;-73
2021/07/02 05:47:16;;;;;;;57.15;20.70;;;;;;;14.66;95.86;100906.52;124646;1093;64757;-73
2021/07/02 05:49:43;;;;;;;67.47;23.43;;;;;;;14.67;95.68;100897.47;124871;1093;64307;-72
2021/07/02 05:52:10;;;;;;;61.83;21.47;;;;;;;14.63;95.06;100904.22;124851;1093;64281;-73
2021/07/02 05:54:37;;;;;;;62.17;24.87;;;;;;;14.64;95.76;100911.23;124829;1092;64293;-73
2021/07/02 05:57:04;;;;;;;65.40;25.87;;;;;;;14.67;95.93;100905.48;124863;1093;64290;-73
2021/07/02 05:59:31;;;;;;;57.70;18.23;;;;;;;14.67;95.12;100916.16;124936;1093;64993;-73
2021/07/02 06:01:58;;;;;;;62.93;25.73;;;;;;;14.71;94.93;100907.78;124704;1093;64310;-73
2021/07/02 06:04:26;;;;;;;53.25;20.85;;;;;;;14.72;94.16;100922.77;124715;1093;64287;-72
2021/07/02 06:06:53;;;;;;;46.40;21.77;;;;;;;14.72;94.28;100917.42;124678;1093;64301;-74
2021/07/02 06:09:20;;;;;;;60.03;26.83;;;;;;;14.75;94.43;100922.36;124701;1093;65478;-72
2021/07/02 06:11:47;;;;;;;63.60;24.97;;;;;;;14.77;94.16;100930.99;124880;1093;64360;-72
2021/07/02 06:14:14;;;;;;;60.10;23.47;;;;;;;14.72;93.77;100923.58;124689;1093;64316;-72
2021/07/02 06:16:41;;;;;;;57.60;25.00;;;;;;;14.73;94.38;100935.08;124757;1093;65186;-72
2021/07/02 06:19:08;;;;;;;51.00;18.93;;;;;;;14.70;93.07;100941.64;124600;1093;65445;-73
2021/07/02 06:21:36;;;;;;;59.17;23.10;;;;;;;14.68;93.27;100916.98;124655;1093;65490;-73
2021/07/02 06:24:03;;;;;;;47.63;21.07;;;;;;;14.64;93.41;100927.25;124712;1093;64323;-74
2021/07/02 06:26:30;;;;;;;50.40;17.83;;;;;;;14.61;93.17;100932.96;124729;1093;64783;-74
2021/07/02 06:28:57;;;;;;;47.00;16.93;;;;;;;14.61;93.06;100927.63;124871;1093;64378;-73
2021/07/02 06:31:24;;;;;;;48.20;19.05;;;;;;;14.59;92.60;100929.66;124677;1093;64384;-73
2021/07/02 06:33:51;;;;;;;49.00;20.07;;;;;;;14.61;92.77;100926.80;124850;1092;64314;-73
2021/07/02 06:36:18;;;;;;;36.67;15.37;;;;;;;14.59;92.47;100931.52;124813;1093;64320;-73
2021/07/02 06:38:45;;;;;;;57.43;17.47;;;;;;;14.56;92.12;100932.73;124694;1093;64304;-73
2021/07/02 06:41:12;;;;;;;59.20;19.97;;;;;;;14.57;92.45;100942.38;124772;1093;64310;-74
2021/07/02 06:43:39;;;;;;;50.03;15.37;;;;;;;14.55;92.65;100927.55;124870;1093;64243;-74
2021/07/02 06:46:06;;;;;;;65.70;19.93;;;;;;;14.54;92.21;100932.08;124810;1092;64285;-74
2021/07/02 06:48:34;;;;;;;51.47;17.60;;;;;;;14.52;92.46;100927.95;124719;1093;64286;-74
2021/07/02 06:51:01;;;;;;;49.13;16.73;;;;;;;14.53;92.24;100935.75;124658;1093;64471;-73
2021/07/02 06:53:28;;;;;;;48.60;18.30;;;;;;;14.54;92.02;100929.41;124911;1093;64282;-74
2021/07/02 06:55:55;;;;;;;50.10;18.30;;;;;;;14.57;92.07;100934.38;124663;1093;64307;-74
2021/07/02 06:58:22;;;;;;;44.10;15.87;;;;;;;14.57;91.57;100939.71;124919;1093;64282;-74
2021/07/02 07:00:49;;;;;;;48.20;15.23;;;;;;;14.61;91.16;100934.81;124686;1093;64314;-74
2021/07/02 07:03:16;;;;;;;46.27;19.03;;;;;;;14.68;91.63;100933.00;124918;1093;64284;-74
2021/07/02 07:05:43;;;;;;;49.55;16.40;;;;;;;14.77;90.76;100928.32;124707;1092;64287;-73
2021/07/02 07:08:11;;;;;;;32.40;11.90;;;;;;;14.91;90.79;100932.72;124642;1093;64285;-73
2021/07/02 07:10:38;;;;;;;44.93;18.73;;;;;;;15.02;89.74;100926.81;124621;1093;64313;-73
2021/07/02 07:13:06;;;;;;;36.70;13.97;;;;;;;15.08;88.97;100927.88;124783;1093;64281;-73
2021/07/02 07:15:34;;;;;;;43.47;19.17;;;;;;;15.20;88.83;100928.14;124976;1093;64211;-72
2021/07/02 07:18:02;;;;;;;43.17;16.17;;;;;;;15.30;88.52;100931.27;125143;1093;64266;-72
2021/07/02 07:20:29;;;;;;;34.03;15.17;;;;;;;15.35;87.42;100927.99;124839;1093;64317;-72
2021/07/02 07:22:56;;;;;;;32.83;14.30;;;;;;;15.40;87.58;100931.69;124864;1092;64291;-72
2021/07/02 07:25:24;;;;;;;35.73;15.20;;;;;;;15.44;87.17;100932.94;124715;1093;64307;-73
2021/07/02 07:27:52;;;;;;;44.30;17.13;;;;;;;15.53;87.34;100933.58;124883;1093;64304;-73
2021/07/02 07:30:19;;;;;;;40.20;15.70;;;;;;;15.62;86.28;100939.56;124681;1092;65370;-73
2021/07/02 07:32:50;;;;;;;35.93;17.13;;;;;;;15.69;85.16;100951.12;124868;1093;64313;-74
2021/07/02 07:35:42;;;;;;;35.97;16.80;;;;;;;15.74;84.20;100943.33;125009;1093;64313;-71
2021/07/02 07:38:04;;;;;;;38.20;13.70;;;;;;;15.77;83.75;100940.27;124704;1093;64291;-72
2021/07/02 07:40:32;;;;;;;38.53;13.30;;;;;;;15.79;83.47;100946.23;124833;1093;64214;-73
2021/07/02 07:42:59;;;;;;;34.70;14.93;;;;;;;15.94;84.58;100931.83;124863;1093;64310;-72
2021/07/02 07:45:26;;;;;;;41.97;19.17;;;;;;;16.12;84.27;100937.41;124840;1093;64919;-73
2021/07/02 07:47:54;;;;;;;34.10;16.50;;;;;;;16.26;82.73;100938.24;124835;1093;64936;-73
2021/07/02 07:50:24;;;;;;;30.63;12.67;;;;;;;16.39;82.03;100935.55;124818;1093;64304;-74
2021/07/02 07:53:01;;;;;;;41.30;16.70;;;;;;;16.56;82.09;100933.27;124955;1091;64237;-73
2021/07/02 07:55:30;;;;;;;37.07;13.57;;;;;;;16.74;80.36;100939.81;124674;1093;65404;-73
2021/07/02 07:57:58;;;;;;;30.60;12.90;;;;;;;16.86;79.98;100935.50;125130;1093;64292;-73
2021/07/02 08:00:25;;;;;;;26.43;12.83;;;;;;;16.86;79.59;100938.98;124882;1093;64404;-73
2021/07/02 08:02:52;;;;;;;29.47;15.57;;;;;;;16.88;80.21;100928.89;124884;1093;64234;-74
2021/07/02 08:05:20;;;;;;;28.50;14.07;;;;;;;16.91;80.08;100943.72;124857;1093;64277;-74
2021/07/02 08:07:47;;;;;;;28.03;13.57;;;;;;;16.89;79.35;100946.63;124680;1092;64287;-74
2021/07/02 08:10:17;;;;;;;36.90;15.33;;;;;;;16.86;78.92;100943.53;124825;1093;64946;-73
2021/07/02 08:12:44;;;;;;;28.43;13.97;;;;;;;16.83;79.27;100946.62;124745;1093;64234;-74
2021/07/02 08:15:14;;;;;;;28.60;10.33;;;;;;;16.78;80.02;100949.08;124574;1092;64881;-74
2021/07/02 08:17:41;;;;;;;33.90;15.43;;;;;;;16.77;79.51;100955.48;124813;1093;64503;-74
2021/07/02 08:20:10;;;;;;;34.53;11.33;;;;;;;16.71;79.56;100955.28;124669;1093;64196;-74
2021/07/02 08:22:38;;;;;;;29.97;13.40;;;;;;;16.67;79.52;100961.27;124758;1093;64337;-74
2021/07/02 08:25:07;;;;;;;27.63;13.93;;;;;;;16.64;79.93;100954.47;124812;1093;64400;-73
2021/07/02 08:29:22;;;;;;;33.75;15.70;;;;;;;16.60;80.78;100960.46;124697;1093;64291;-74
2021/07/02 08:30:22;;;;;;;36.90;15.80;;;;;;;16.55;81.47;100961.06;124783;1093;64307;-74
2021/07/02 08:32:50;;;;;;;29.57;15.33;;;;;;;16.52;81.66;100964.16;124593;1092;64222;-75
2021/07/02 08:35:21;;;;;;;38.40;15.00;;;;;;;16.49;81.04;100967.24;124600;1093;64719;-72
2021/07/02 08:37:52;;;;;;;;;;;;;;;16.49;80.91;100964.56;124896;1093;64783;-74
2021/07/02 08:40:20;;;;;;;38.67;18.93;;;;;;;16.59;81.89;100962.30;124690;1093;64287;-73
2021/07/02 08:42:49;;;;;;;24.73;11.83;;;;;;;16.67;80.29;100964.76;124683;1093;64317;-74
2021/07/02 08:45:17;;;;;;;26.80;11.85;;;;;;;16.79;79.61;100966.79;124787;1093;64864;-74
2021/07/02 08:47:44;;;;;;;21.77;10.53;;;;;;;16.99;79.73;100959.56;124693;1092;64365;-73
2021/07/02 08:50:13;;;;;;;25.90;12.10;;;;;;;17.13;78.07;100963.04;124926;1093;64214;-72
2021/07/02 08:52:40;;;;;;;25.40;12.33;;;;;;;17.33;78.01;100957.59;124681;1093;64339;-74
2021/07/02 08:55:11;;;;;;;27.53;13.60;;;;;;;17.56;77.70;100965.11;125046;1093;64380;-73
2021/07/02 08:57:38;;;;;;;23.73;13.43;;;;;;;17.85;76.70;100966.42;124850;1093;64283;-75
2021/07/02 09:00:09;;;;;;;30.67;12.63;;;;;;;18.06;76.33;100965.25;124824;1093;64305;-74
2021/07/02 09:02:38;;;;;;;25.40;10.87;;;;;;;18.17;74.78;100969.09;124823;1092;64313;-75
2021/07/02 09:05:33;;;;;;;21.67;11.43;;;;;;;18.18;74.23;100976.09;124891;1093;64307;-74
2021/07/02 09:08:14;;;;;;;18.40;9.33;;;;;;;17.99;73.69;100971.70;124785;1092;64288;-75
2021/07/02 09:10:45;;;;;;;19.43;11.80;;;;;;;17.93;74.48;100976.88;124913;1092;64293;-75
2021/07/02 09:13:13;;;;;;;23.57;11.37;;;;;;;17.86;74.25;100970.74;124858;1093;64419;-73
2021/07/02 09:15:49;;;;;;;20.33;10.10;;;;;;;17.85;74.83;100971.80;124769;1093;64287;-74
2021/07/02 09:18:17;;;;;;;21.87;10.97;;;;;;;17.93;74.61;100968.01;124710;1093;64332;-75
2021/07/02 09:20:45;;;;;;;19.83;9.63;;;;;;;17.99;74.04;100971.70;124949;1093;64332;-74
2021/07/02 09:23:16;;;;;;;19.53;9.63;;;;;;;18.16;73.40;100962.06;124923;1093;65521;-74
2021/07/02 09:25:53;;;;;;;20.67;8.93;;;;;;;18.31;72.85;100973.30;124647;1093;64725;-73
2021/07/02 09:28:27;;;;;;;14.00;8.93;;;;;;;18.49;71.69;100974.41;124865;1093;64230;-73
2021/07/02 09:30:54;;;;;;;14.07;7.10;;;;;;;18.66;70.89;100972.80;124906;1093;64297;-73
2021/07/02 09:33:24;;;;;;;13.33;7.10;;;;;;;18.78;68.58;100972.90;124752;1093;64375;-73
2021/07/02 09:35:58;;;;;;;13.80;5.53;;;;;;;18.90;68.36;100975.69;124798;1093;64233;-74
2021/07/02 09:38:39;;;;;;;9.27;5.47;;;;;;;18.89;68.08;100979.41;124845;1093;64293;-75
2021/07/02 09:41:09;;;;;;;11.53;6.80;;;;;;;18.83;69.03;100989.20;124750;1093;64297;-73
2021/07/02 09:43:39;;;;;;;13.97;8.00;;;;;;;18.69;69.98;100991.14;124736;1092;64320;-73
2021/07/02 09:46:08;;;;;;;15.90;8.00;;;;;;;18.51;70.59;100985.76;124868;1093;64317;-75
2021/07/02 09:48:43;;;;;;;10.15;4.90;;;;;;;18.34;70.24;100994.36;124843;1091;64265;-74
2021/07/02 09:51:13;;;;;;;12.20;6.57;;;;;;;18.35;70.60;100987.12;124751;1092;64264;-73
2021/07/02 09:53:42;;;;;;;14.07;8.47;;;;;;;18.45;70.24;100997.38;124896;1093;64285;-73
2021/07/02 09:56:19;;;;;;;12.93;7.80;;;;;;;18.59;68.99;100992.70;124801;1092;64307;-73
2021/07/02 09:58:46;;;;;;;15.73;8.70;;;;;;;18.79;68.56;100984.49;124762;1093;64307;-74
2021/07/02 10:01:25;;;;;;;13.47;6.97;;;;;;;18.90;67.65;100989.13;124875;1093;64304;-74
2021/07/02 10:03:53;;;;;;;17.50;7.60;;;;;;;19.05;66.04;100992.27;124835;1093;64240;-73
2021/07/02 10:06:22;;;;;;;11.77;6.50;;;;;;;19.10;66.49;100988.89;124769;1092;64766;-73
2021/07/02 10:08:49;;;;;;;14.50;7.37;;;;;;;19.24;66.18;100989.58;124912;1093;64268;-72
2021/07/02 10:11:18;;;;;;;14.43;8.23;;;;;;;19.46;66.63;100993.42;124746;1093;64291;-73
2021/07/02 10:13:49;;;;;;;13.43;8.43;;;;;;;19.66;65.05;100986.98;124883;1093;65947;-73
2021/07/02 10:16:17;;;;;;;12.93;7.50;;;;;;;19.74;65.35;100992.05;124678;1093;64467;-73
2021/07/02 10:18:47;;;;;;;9.53;6.93;;;;;;;19.56;65.68;100988.33;124901;1093;64235;-73
2021/07/02 10:21:15;;;;;;;10.90;8.17;;;;;;;19.38;65.56;100991.06;124783;1093;64314;-72
2021/07/02 10:23:48;;;;;;;14.47;8.07;;;;;;;19.20;67.06;101009.89;124972;1093;64214;-74
2021/07/02 10:26:16;;;;;;;13.47;6.83;;;;;;;18.97;67.58;101005.99;124736;1093;64318;-74
2021/07/02 10:28:44;;;;;;;16.80;7.45;;;;;;;18.82;67.85;101009.04;124902;1093;64428;-74
2021/07/02 10:31:13;;;;;;;13.43;7.43;;;;;;;18.70;68.34;101011.62;125042;1092;64339;-72
2021/07/02 10:33:46;;;;;;;11.83;7.50;;;;;;;18.56;69.95;101004.71;124642;1092;64381;-73
2021/07/02 10:36:15;;;;;;;11.50;7.30;;;;;;;18.50;69.34;101024.39;124772;1093;64301;-73
2021/07/02 10:38:44;;;;;;;12.03;7.60;;;;;;;18.43;70.14;101015.58;124700;1092;64267;-74
2021/07/02 10:41:21;;;;;;;8.80;5.33;;;;;;;18.41;71.14;101023.84;124718;1093;64368;-72
2021/07/02 10:44:10;;;;;;;19.70;6.93;;;;;;;18.42;70.76;101019.29;125086;1093;64380;-72
2021/07/02 10:46:38;;;;;;;11.15;6.25;;;;;;;18.45;70.74;101018.88;124815;1093;64610;-73
2021/07/02 10:49:11;;;;;;;8.90;4.10;;;;;;;18.31;71.96;101021.64;125158;1093;64249;-73
2021/07/02 10:51:43;;;;;;;9.57;4.50;;;;;;;18.17;71.64;101022.80;124987;1093;64317;-72
2021/07/02 10:54:13;;;;;;;14.77;5.90;;;;;;;18.11;72.88;101020.97;124784;1093;64833;-73
2021/07/02 10:56:53;;;;;;;15.33;7.70;;;;;;;18.07;72.97;101028.63;124878;1092;64957;-74
2021/07/02 10:59:21;;;;;;;10.13;5.70;;;;;;;18.01;72.85;101028.67;124909;1093;64297;-74
2021/07/02 11:02:07;;;;;;;10.97;5.93;;;;;;;18.04;73.03;101031.76;125192;1093;64208;-73
2021/07/02 11:04:40;;;;;;;12.50;7.30;;;;;;;18.19;73.08;101020.72;124788;1093;64292;-74
2021/07/02 11:07:14;;;;;;;14.40;6.43;;;;;;;18.28;71.39;101026.64;124887;1093;64361;-72